Terminal Aerodrome Forecast
Issued by NWS

Home | Current Version | Previous Version | Text Only | Print | Product List | Glossary On
Versions: 1 2 3 4 5 6 7 8 9 10 11 12 13 14 15 16 17
056
FTPA31 PHFO 281132
TAFHJR
TAF
PHJR 281132Z 2812/2912 06007KT P6SM FEW025 SCT045 BKN070
     FM282100 08010G18KT P6SM FEW045 SCT070
     FM290600 06004KT P6SM FEW045 SCT070=

USA.gov is the U.S. government's official web portal to all federal, state and local government web resources and services.